sensor_id;sensor_type;location;lat;lon;timestamp;P1;durP1;ratioP1;P2;durP2;ratioP2
10934;SDS011;5520;45.752;4.874;2022-08-19T00:01:33;4.50;;;3.30;;
10934;SDS011;5520;45.752;4.874;2022-08-19T00:04:05;3.20;;;3.00;;
10934;SDS011;5520;45.752;4.874;2022-08-19T00:06:34;4.67;;;3.23;;
10934;SDS011;5520;45.752;4.874;2022-08-19T00:09:03;3.43;;;2.60;;
10934;SDS011;5520;45.752;4.874;2022-08-19T00:11:32;3.40;;;3.10;;
10934;SDS011;5520;45.752;4.874;2022-08-19T00:14:04;2.90;;;2.70;;
10934;SDS011;5520;45.752;4.874;2022-08-19T00:16:32;2.83;;;2.67;;
10934;SDS011;5520;45.752;4.874;2022-08-19T00:19:00;2.70;;;2.50;;
10934;SDS011;5520;45.752;4.874;2022-08-19T00:21:30;2.97;;;2.77;;
10934;SDS011;5520;45.752;4.874;2022-08-19T00:23:58;3.33;;;3.10;;
10934;SDS011;5520;45.752;4.874;2022-08-19T00:26:27;2.87;;;2.67;;
10934;SDS011;5520;45.752;4.874;2022-08-19T00:28:55;2.80;;;2.57;;
10934;SDS011;5520;45.752;4.874;2022-08-19T00:31:23;3.30;;;3.00;;
10934;SDS011;5520;45.752;4.874;2022-08-19T00:33:51;3.97;;;3.00;;
10934;SDS011;5520;45.752;4.874;2022-08-19T00:36:19;3.83;;;2.90;;
10934;SDS011;5520;45.752;4.874;2022-08-19T00:38:49;3.50;;;3.20;;
10934;SDS011;5520;45.752;4.874;2022-08-19T00:41:20;3.30;;;3.00;;
10934;SDS011;5520;45.752;4.874;2022-08-19T00:43:56;3.33;;;3.10;;
10934;SDS011;5520;45.752;4.874;2022-08-19T00:46:24;6.43;;;2.70;;
10934;SDS011;5520;45.752;4.874;2022-08-19T00:48:53;3.37;;;2.60;;
10934;SDS011;5520;45.752;4.874;2022-08-19T00:51:21;2.73;;;2.50;;
10934;SDS011;5520;45.752;4.874;2022-08-19T00:53:54;3.23;;;2.57;;
10934;SDS011;5520;45.752;4.874;2022-08-19T00:56:22;3.03;;;2.50;;
10934;SDS011;5520;45.752;4.874;2022-08-19T00:58:52;2.57;;;2.37;;
10934;SDS011;5520;45.752;4.874;2022-08-19T01:01:21;2.93;;;2.73;;
10934;SDS011;5520;45.752;4.874;2022-08-19T01:03:49;4.23;;;2.63;;
10934;SDS011;5520;45.752;4.874;2022-08-19T01:06:23;3.40;;;2.30;;
10934;SDS011;5520;45.752;4.874;2022-08-19T01:08:52;2.77;;;2.50;;
10934;SDS011;5520;45.752;4.874;2022-08-19T01:11:21;4.60;;;2.43;;
10934;SDS011;5520;45.752;4.874;2022-08-19T01:13:49;4.90;;;2.63;;
10934;SDS011;5520;45.752;4.874;2022-08-19T01:16:18;2.70;;;2.50;;
10934;SDS011;5520;45.752;4.874;2022-08-19T01:18:47;3.87;;;2.73;;
10934;SDS011;5520;45.752;4.874;2022-08-19T01:21:16;2.63;;;2.43;;
10934;SDS011;5520;45.752;4.874;2022-08-19T01:23:47;2.80;;;2.43;;
10934;SDS011;5520;45.752;4.874;2022-08-19T01:26:16;2.87;;;2.40;;
10934;SDS011;5520;45.752;4.874;2022-08-19T01:28:45;2.70;;;2.50;;
10934;SDS011;5520;45.752;4.874;2022-08-19T01:31:15;2.70;;;2.37;;
10934;SDS011;5520;45.752;4.874;2022-08-19T01:33:54;3.20;;;2.43;;
10934;SDS011;5520;45.752;4.874;2022-08-19T01:36:23;2.80;;;2.60;;
10934;SDS011;5520;45.752;4.874;2022-08-19T01:38:54;7.23;;;2.63;;
10934;SDS011;5520;45.752;4.874;2022-08-19T01:41:22;2.40;;;2.30;;
10934;SDS011;5520;45.752;4.874;2022-08-19T01:43:50;3.30;;;2.27;;
10934;SDS011;5520;45.752;4.874;2022-08-19T01:46:38;2.37;;;2.27;;
10934;SDS011;5520;45.752;4.874;2022-08-19T01:49:07;3.03;;;2.67;;
10934;SDS011;5520;45.752;4.874;2022-08-19T01:51:36;3.33;;;2.83;;
10934;SDS011;5520;45.752;4.874;2022-08-19T01:54:07;2.30;;;2.20;;
10934;SDS011;5520;45.752;4.874;2022-08-19T01:56:35;2.50;;;2.30;;
10934;SDS011;5520;45.752;4.874;2022-08-19T01:59:05;2.60;;;2.40;;
10934;SDS011;5520;45.752;4.874;2022-08-19T02:01:34;2.50;;;2.30;;
10934;SDS011;5520;45.752;4.874;2022-08-19T02:04:02;4.03;;;2.27;;
10934;SDS011;5520;45.752;4.874;2022-08-19T02:06:31;3.23;;;2.20;;
10934;SDS011;5520;45.752;4.874;2022-08-19T02:08:59;2.20;;;2.03;;
10934;SDS011;5520;45.752;4.874;2022-08-19T02:11:30;3.23;;;2.30;;
10934;SDS011;5520;45.752;4.874;2022-08-19T02:14:00;3.00;;;2.40;;
10934;SDS011;5520;45.752;4.874;2022-08-19T02:16:29;2.13;;;1.93;;
10934;SDS011;5520;45.752;4.874;2022-08-19T02:18:57;3.17;;;2.60;;
10934;SDS011;5520;45.752;4.874;2022-08-19T02:21:27;2.53;;;2.10;;
10934;SDS011;5520;45.752;4.874;2022-08-19T02:23:55;2.40;;;2.20;;
10934;SDS011;5520;45.752;4.874;2022-08-19T02:26:23;2.63;;;2.00;;
10934;SDS011;5520;45.752;4.874;2022-08-19T02:28:54;2.27;;;2.07;;
10934;SDS011;5520;45.752;4.874;2022-08-19T02:31:23;3.90;;;2.07;;
10934;SDS011;5520;45.752;4.874;2022-08-19T02:33:51;3.60;;;2.07;;
10934;SDS011;5520;45.752;4.874;2022-08-19T02:36:23;3.23;;;2.90;;
10934;SDS011;5520;45.752;4.874;2022-08-19T02:38:51;2.03;;;1.93;;
10934;SDS011;5520;45.752;4.874;2022-08-19T02:41:21;2.00;;;1.90;;
10934;SDS011;5520;45.752;4.874;2022-08-19T02:43:54;2.53;;;1.70;;
10934;SDS011;5520;45.752;4.874;2022-08-19T02:46:44;5.23;;;2.00;;
10934;SDS011;5520;45.752;4.874;2022-08-19T02:49:12;1.80;;;1.70;;
10934;SDS011;5520;45.752;4.874;2022-08-19T02:51:43;1.90;;;1.80;;
10934;SDS011;5520;45.752;4.874;2022-08-19T02:54:13;2.63;;;2.03;;
10934;SDS011;5520;45.752;4.874;2022-08-19T02:56:42;2.73;;;2.00;;
10934;SDS011;5520;45.752;4.874;2022-08-19T02:59:13;2.87;;;1.50;;
10934;SDS011;5520;45.752;4.874;2022-08-19T03:01:41;2.00;;;1.43;;
10934;SDS011;5520;45.752;4.874;2022-08-19T03:04:10;1.93;;;1.70;;
10934;SDS011;5520;45.752;4.874;2022-08-19T03:06:39;1.83;;;1.70;;
10934;SDS011;5520;45.752;4.874;2022-08-19T03:09:07;1.83;;;1.67;;
10934;SDS011;5520;45.752;4.874;2022-08-19T03:11:35;1.90;;;1.77;;
10934;SDS011;5520;45.752;4.874;2022-08-19T03:14:03;1.70;;;1.60;;
10934;SDS011;5520;45.752;4.874;2022-08-19T03:16:36;1.73;;;1.60;;
10934;SDS011;5520;45.752;4.874;2022-08-19T03:19:07;1.60;;;1.50;;
10934;SDS011;5520;45.752;4.874;2022-08-19T03:21:35;2.10;;;1.90;;
10934;SDS011;5520;45.752;4.874;2022-08-19T03:24:04;1.77;;;1.67;;
10934;SDS011;5520;45.752;4.874;2022-08-19T03:26:33;2.10;;;1.73;;
10934;SDS011;5520;45.752;4.874;2022-08-19T03:29:02;1.27;;;1.27;;
10934;SDS011;5520;45.752;4.874;2022-08-19T03:31:31;2.00;;;1.80;;
10934;SDS011;5520;45.752;4.874;2022-08-19T03:34:20;1.60;;;1.50;;
10934;SDS011;5520;45.752;4.874;2022-08-19T03:36:48;2.00;;;1.90;;
10934;SDS011;5520;45.752;4.874;2022-08-19T03:39:16;1.60;;;1.50;;
10934;SDS011;5520;45.752;4.874;2022-08-19T03:41:45;2.27;;;2.07;;
10934;SDS011;5520;45.752;4.874;2022-08-19T03:44:36;1.93;;;1.83;;
10934;SDS011;5520;45.752;4.874;2022-08-19T03:47:05;2.50;;;2.30;;
10934;SDS011;5520;45.752;4.874;2022-08-19T03:49:34;1.90;;;1.80;;
10934;SDS011;5520;45.752;4.874;2022-08-19T03:52:03;2.50;;;2.30;;
10934;SDS011;5520;45.752;4.874;2022-08-19T03:54:34;2.80;;;2.60;;
10934;SDS011;5520;45.752;4.874;2022-08-19T03:57:02;5.13;;;2.50;;
10934;SDS011;5520;45.752;4.874;2022-08-19T03:59:31;3.20;;;2.90;;
10934;SDS011;5520;45.752;4.874;2022-08-19T04:02:00;3.07;;;2.60;;
10934;SDS011;5520;45.752;4.874;2022-08-19T04:04:28;3.13;;;2.63;;
10934;SDS011;5520;45.752;4.874;2022-08-19T04:06:58;4.93;;;2.70;;
10934;SDS011;5520;45.752;4.874;2022-08-19T04:09:26;2.70;;;2.50;;
10934;SDS011;5520;45.752;4.874;2022-08-19T04:11:55;2.97;;;2.57;;
10934;SDS011;5520;45.752;4.874;2022-08-19T04:14:24;3.63;;;2.20;;
10934;SDS011;5520;45.752;4.874;2022-08-19T04:16:52;4.63;;;2.70;;
10934;SDS011;5520;45.752;4.874;2022-08-19T04:19:20;2.90;;;2.60;;
10934;SDS011;5520;45.752;4.874;2022-08-19T04:21:50;4.37;;;2.33;;
10934;SDS011;5520;45.752;4.874;2022-08-19T04:24:20;2.90;;;2.20;;
10934;SDS011;5520;45.752;4.874;2022-08-19T04:26:49;2.00;;;1.90;;
10934;SDS011;5520;45.752;4.874;2022-08-19T04:29:18;3.43;;;2.27;;
10934;SDS011;5520;45.752;4.874;2022-08-19T04:31:49;3.10;;;2.80;;
10934;SDS011;5520;45.752;4.874;2022-08-19T04:34:17;2.60;;;2.40;;
10934;SDS011;5520;45.752;4.874;2022-08-19T04:36:48;2.43;;;2.23;;
10934;SDS011;5520;45.752;4.874;2022-08-19T04:39:18;3.30;;;2.60;;
10934;SDS011;5520;45.752;4.874;2022-08-19T04:41:49;2.43;;;2.23;;
10934;SDS011;5520;45.752;4.874;2022-08-19T04:44:35;4.33;;;2.67;;
10934;SDS011;5520;45.752;4.874;2022-08-19T04:47:11;3.80;;;2.40;;
10934;SDS011;5520;45.752;4.874;2022-08-19T04:49:39;2.30;;;2.10;;
10934;SDS011;5520;45.752;4.874;2022-08-19T04:52:07;3.40;;;2.50;;
10934;SDS011;5520;45.752;4.874;2022-08-19T04:54:35;2.33;;;2.10;;
10934;SDS011;5520;45.752;4.874;2022-08-19T04:57:07;2.70;;;2.50;;
10934;SDS011;5520;45.752;4.874;2022-08-19T04:59:36;3.63;;;2.43;;
10934;SDS011;5520;45.752;4.874;2022-08-19T05:02:06;4.00;;;2.57;;
10934;SDS011;5520;45.752;4.874;2022-08-19T05:04:34;4.83;;;2.33;;
10934;SDS011;5520;45.752;4.874;2022-08-19T05:07:05;4.57;;;2.67;;
10934;SDS011;5520;45.752;4.874;2022-08-19T05:09:33;2.93;;;2.73;;
10934;SDS011;5520;45.752;4.874;2022-08-19T05:12:23;2.93;;;2.63;;
10934;SDS011;5520;45.752;4.874;2022-08-19T05:14:54;5.30;;;2.43;;
10934;SDS011;5520;45.752;4.874;2022-08-19T05:17:23;4.73;;;3.63;;
10934;SDS011;5520;45.752;4.874;2022-08-19T05:19:54;2.63;;;2.40;;
10934;SDS011;5520;45.752;4.874;2022-08-19T05:22:40;3.00;;;2.80;;
10934;SDS011;5520;45.752;4.874;2022-08-19T05:25:09;2.33;;;2.13;;
10934;SDS011;5520;45.752;4.874;2022-08-19T05:27:41;3.03;;;2.73;;
10934;SDS011;5520;45.752;4.874;2022-08-19T05:30:10;3.60;;;2.90;;
10934;SDS011;5520;45.752;4.874;2022-08-19T05:32:38;3.63;;;3.00;;
10934;SDS011;5520;45.752;4.874;2022-08-19T05:35:07;4.07;;;2.63;;
10934;SDS011;5520;45.752;4.874;2022-08-19T05:37:35;4.90;;;2.77;;
10934;SDS011;5520;45.752;4.874;2022-08-19T05:40:07;4.17;;;2.67;;
10934;SDS011;5520;45.752;4.874;2022-08-19T05:42:35;4.70;;;3.20;;
10934;SDS011;5520;45.752;4.874;2022-08-19T05:45:05;4.10;;;3.57;;
10934;SDS011;5520;45.752;4.874;2022-08-19T05:47:34;4.90;;;3.20;;
10934;SDS011;5520;45.752;4.874;2022-08-19T05:50:07;6.63;;;3.03;;
10934;SDS011;5520;45.752;4.874;2022-08-19T05:52:36;3.63;;;2.83;;
10934;SDS011;5520;45.752;4.874;2022-08-19T05:55:15;3.23;;;2.90;;
10934;SDS011;5520;45.752;4.874;2022-08-19T05:57:43;4.47;;;3.40;;
10934;SDS011;5520;45.752;4.874;2022-08-19T06:00:13;5.13;;;3.53;;
10934;SDS011;5520;45.752;4.874;2022-08-19T06:02:41;4.73;;;2.60;;
10934;SDS011;5520;45.752;4.874;2022-08-19T06:05:09;3.43;;;2.93;;
10934;SDS011;5520;45.752;4.874;2022-08-19T06:07:38;3.50;;;3.20;;
10934;SDS011;5520;45.752;4.874;2022-08-19T06:10:08;3.33;;;3.10;;
10934;SDS011;5520;45.752;4.874;2022-08-19T06:12:36;3.37;;;3.03;;
10934;SDS011;5520;45.752;4.874;2022-08-19T06:15:06;5.10;;;3.50;;
10934;SDS011;5520;45.752;4.874;2022-08-19T06:17:35;3.57;;;3.27;;
10934;SDS011;5520;45.752;4.874;2022-08-19T06:20:04;5.63;;;3.53;;
10934;SDS011;5520;45.752;4.874;2022-08-19T06:22:36;3.80;;;3.13;;
10934;SDS011;5520;45.752;4.874;2022-08-19T06:25:05;4.40;;;2.80;;
10934;SDS011;5520;45.752;4.874;2022-08-19T06:27:33;3.40;;;3.10;;
10934;SDS011;5520;45.752;4.874;2022-08-19T06:30:01;4.83;;;3.23;;
10934;SDS011;5520;45.752;4.874;2022-08-19T06:32:29;4.53;;;3.23;;
10934;SDS011;5520;45.752;4.874;2022-08-19T06:34:59;6.13;;;3.33;;
10934;SDS011;5520;45.752;4.874;2022-08-19T06:37:27;6.17;;;3.80;;
10934;SDS011;5520;45.752;4.874;2022-08-19T06:39:56;3.80;;;3.40;;
10934;SDS011;5520;45.752;4.874;2022-08-19T06:42:24;4.20;;;3.33;;
10934;SDS011;5520;45.752;4.874;2022-08-19T06:44:52;3.93;;;3.30;;
10934;SDS011;5520;45.752;4.874;2022-08-19T06:47:20;5.50;;;3.17;;
10934;SDS011;5520;45.752;4.874;2022-08-19T06:49:54;4.17;;;3.80;;
10934;SDS011;5520;45.752;4.874;2022-08-19T06:52:29;3.77;;;3.40;;
10934;SDS011;5520;45.752;4.874;2022-08-19T06:54:59;3.57;;;3.27;;
10934;SDS011;5520;45.752;4.874;2022-08-19T06:57:32;5.03;;;3.30;;
10934;SDS011;5520;45.752;4.874;2022-08-19T07:00:00;3.53;;;3.23;;
10934;SDS011;5520;45.752;4.874;2022-08-19T07:02:28;5.40;;;3.90;;
10934;SDS011;5520;45.752;4.874;2022-08-19T07:04:56;4.07;;;3.03;;
10934;SDS011;5520;45.752;4.874;2022-08-19T07:07:30;7.87;;;3.80;;
10934;SDS011;5520;45.752;4.874;2022-08-19T07:09:59;6.93;;;5.77;;
10934;SDS011;5520;45.752;4.874;2022-08-19T07:12:31;5.23;;;4.07;;
10934;SDS011;5520;45.752;4.874;2022-08-19T07:15:03;4.27;;;3.53;;
10934;SDS011;5520;45.752;4.874;2022-08-19T07:17:32;5.97;;;3.80;;
10934;SDS011;5520;45.752;4.874;2022-08-19T07:20:01;9.17;;;3.90;;
10934;SDS011;5520;45.752;4.874;2022-08-19T07:22:33;5.53;;;3.87;;
10934;SDS011;5520;45.752;4.874;2022-08-19T07:25:01;6.63;;;3.93;;
10934;SDS011;5520;45.752;4.874;2022-08-19T07:27:30;7.27;;;3.73;;
10934;SDS011;5520;45.752;4.874;2022-08-19T07:29:59;5.23;;;4.00;;
10934;SDS011;5520;45.752;4.874;2022-08-19T07:32:27;5.47;;;4.23;;
10934;SDS011;5520;45.752;4.874;2022-08-19T07:34:55;4.00;;;3.60;;
10934;SDS011;5520;45.752;4.874;2022-08-19T07:37:24;4.40;;;3.57;;
10934;SDS011;5520;45.752;4.874;2022-08-19T07:39:59;4.63;;;4.20;;
10934;SDS011;5520;45.752;4.874;2022-08-19T07:42:28;5.90;;;4.30;;
10934;SDS011;5520;45.752;4.874;2022-08-19T07:44:56;4.67;;;3.87;;
10934;SDS011;5520;45.752;4.874;2022-08-19T07:47:25;4.77;;;3.87;;
10934;SDS011;5520;45.752;4.874;2022-08-19T07:50:14;4.77;;;4.10;;
10934;SDS011;5520;45.752;4.874;2022-08-19T07:52:42;5.53;;;4.00;;
10934;SDS011;5520;45.752;4.874;2022-08-19T07:55:16;7.63;;;4.13;;
10934;SDS011;5520;45.752;4.874;2022-08-19T07:58:05;5.37;;;4.17;;
10934;SDS011;5520;45.752;4.874;2022-08-19T08:00:33;5.47;;;4.67;;
10934;SDS011;5520;45.752;4.874;2022-08-19T08:03:02;4.60;;;4.20;;
10934;SDS011;5520;45.752;4.874;2022-08-19T08:05:30;6.67;;;4.70;;
10934;SDS011;5520;45.752;4.874;2022-08-19T08:08:15;6.53;;;4.43;;
10934;SDS011;5520;45.752;4.874;2022-08-19T08:11:03;5.07;;;4.40;;
10934;SDS011;5520;45.752;4.874;2022-08-19T08:13:33;6.37;;;4.50;;
10934;SDS011;5520;45.752;4.874;2022-08-19T08:16:04;5.63;;;5.13;;
10934;SDS011;5520;45.752;4.874;2022-08-19T08:18:39;5.80;;;5.20;;
10934;SDS011;5520;45.752;4.874;2022-08-19T08:21:18;6.83;;;5.30;;
10934;SDS011;5520;45.752;4.874;2022-08-19T08:23:46;8.70;;;5.23;;
10934;SDS011;5520;45.752;4.874;2022-08-19T08:26:18;7.03;;;5.37;;
10934;SDS011;5520;45.752;4.874;2022-08-19T08:28:46;9.03;;;5.60;;
10934;SDS011;5520;45.752;4.874;2022-08-19T08:31:15;7.40;;;5.57;;
10934;SDS011;5520;45.752;4.874;2022-08-19T08:33:45;5.80;;;5.30;;
10934;SDS011;5520;45.752;4.874;2022-08-19T08:36:14;6.60;;;5.37;;
10934;SDS011;5520;45.752;4.874;2022-08-19T08:38:43;6.37;;;5.77;;
10934;SDS011;5520;45.752;4.874;2022-08-19T08:41:15;7.27;;;5.80;;
10934;SDS011;5520;45.752;4.874;2022-08-19T08:43:49;6.37;;;5.57;;
10934;SDS011;5520;45.752;4.874;2022-08-19T08:46:19;7.13;;;5.80;;
10934;SDS011;5520;45.752;4.874;2022-08-19T08:48:59;7.03;;;5.73;;
10934;SDS011;5520;45.752;4.874;2022-08-19T08:51:32;7.80;;;6.13;;
10934;SDS011;5520;45.752;4.874;2022-08-19T08:54:01;7.87;;;6.40;;
10934;SDS011;5520;45.752;4.874;2022-08-19T08:56:30;7.90;;;5.90;;
10934;SDS011;5520;45.752;4.874;2022-08-19T08:59:01;6.87;;;6.07;;
10934;SDS011;5520;45.752;4.874;2022-08-19T09:01:30;8.73;;;6.83;;
10934;SDS011;5520;45.752;4.874;2022-08-19T09:03:58;9.13;;;6.37;;
10934;SDS011;5520;45.752;4.874;2022-08-19T09:06:38;8.27;;;6.50;;
10934;SDS011;5520;45.752;4.874;2022-08-19T09:09:12;7.67;;;6.33;;
10934;SDS011;5520;45.752;4.874;2022-08-19T09:11:47;11.93;;;7.20;;
10934;SDS011;5520;45.752;4.874;2022-08-19T09:14:23;10.00;;;7.63;;
10934;SDS011;5520;45.752;4.874;2022-08-19T09:17:16;7.80;;;6.80;;
10934;SDS011;5520;45.752;4.874;2022-08-19T09:19:52;7.80;;;7.00;;
10934;SDS011;5520;45.752;4.874;2022-08-19T09:22:20;12.47;;;10.50;;
10934;SDS011;5520;45.752;4.874;2022-08-19T09:24:53;8.43;;;7.20;;
10934;SDS011;5520;45.752;4.874;2022-08-19T09:27:22;8.47;;;7.53;;
10934;SDS011;5520;45.752;4.874;2022-08-19T09:30:10;11.43;;;7.30;;
10934;SDS011;5520;45.752;4.874;2022-08-19T09:32:39;9.17;;;7.40;;
10934;SDS011;5520;45.752;4.874;2022-08-19T09:35:09;11.83;;;8.13;;
10934;SDS011;5520;45.752;4.874;2022-08-19T09:37:37;8.70;;;7.70;;
10934;SDS011;5520;45.752;4.874;2022-08-19T09:40:06;12.33;;;8.30;;
10934;SDS011;5520;45.752;4.874;2022-08-19T09:42:37;11.23;;;8.10;;
10934;SDS011;5520;45.752;4.874;2022-08-19T09:45:18;12.40;;;8.93;;
10934;SDS011;5520;45.752;4.874;2022-08-19T09:47:49;11.70;;;8.60;;
10934;SDS011;5520;45.752;4.874;2022-08-19T09:50:20;10.67;;;8.43;;
10934;SDS011;5520;45.752;4.874;2022-08-19T09:52:48;11.43;;;8.70;;
10934;SDS011;5520;45.752;4.874;2022-08-19T09:55:22;11.87;;;8.60;;
10934;SDS011;5520;45.752;4.874;2022-08-19T09:57:58;13.97;;;8.97;;
10934;SDS011;5520;45.752;4.874;2022-08-19T10:00:28;12.53;;;8.70;;
10934;SDS011;5520;45.752;4.874;2022-08-19T10:02:56;12.37;;;9.63;;
10934;SDS011;5520;45.752;4.874;2022-08-19T10:05:24;10.67;;;9.10;;
10934;SDS011;5520;45.752;4.874;2022-08-19T10:08:14;12.07;;;9.00;;
10934;SDS011;5520;45.752;4.874;2022-08-19T10:10:42;12.10;;;9.93;;
10934;SDS011;5520;45.752;4.874;2022-08-19T10:13:12;11.00;;;9.90;;
10934;SDS011;5520;45.752;4.874;2022-08-19T10:15:42;12.00;;;9.43;;
10934;SDS011;5520;45.752;4.874;2022-08-19T10:18:13;11.60;;;9.37;;
10934;SDS011;5520;45.752;4.874;2022-08-19T10:20:43;11.07;;;8.77;;
10934;SDS011;5520;45.752;4.874;2022-08-19T10:23:18;12.00;;;9.63;;
10934;SDS011;5520;45.752;4.874;2022-08-19T10:25:46;12.77;;;9.50;;
10934;SDS011;5520;45.752;4.874;2022-08-19T10:28:15;12.57;;;9.80;;
10934;SDS011;5520;45.752;4.874;2022-08-19T10:30:46;9.83;;;8.33;;
10934;SDS011;5520;45.752;4.874;2022-08-19T10:33:14;12.83;;;8.67;;
10934;SDS011;5520;45.752;4.874;2022-08-19T10:36:03;9.97;;;8.67;;
10934;SDS011;5520;45.752;4.874;2022-08-19T10:38:31;12.17;;;8.60;;
10934;SDS011;5520;45.752;4.874;2022-08-19T10:41:06;9.73;;;8.20;;
10934;SDS011;5520;45.752;4.874;2022-08-19T10:43:34;9.17;;;8.27;;
10934;SDS011;5520;45.752;4.874;2022-08-19T10:46:06;7.87;;;7.03;;
10934;SDS011;5520;45.752;4.874;2022-08-19T10:48:39;8.43;;;7.63;;
10934;SDS011;5520;45.752;4.874;2022-08-19T10:51:08;8.60;;;7.73;;
10934;SDS011;5520;45.752;4.874;2022-08-19T10:53:53;9.80;;;7.47;;
10934;SDS011;5520;45.752;4.874;2022-08-19T10:56:22;7.30;;;6.60;;
10934;SDS011;5520;45.752;4.874;2022-08-19T10:59:07;6.70;;;6.10;;
10934;SDS011;5520;45.752;4.874;2022-08-19T11:01:36;7.43;;;6.73;;
10934;SDS011;5520;45.752;4.874;2022-08-19T11:04:04;7.73;;;7.03;;
10934;SDS011;5520;45.752;4.874;2022-08-19T11:06:35;7.97;;;6.90;;
10934;SDS011;5520;45.752;4.874;2022-08-19T11:09:05;6.80;;;6.17;;
10934;SDS011;5520;45.752;4.874;2022-08-19T11:11:33;6.93;;;6.33;;
10934;SDS011;5520;45.752;4.874;2022-08-19T11:14:04;8.67;;;6.70;;
10934;SDS011;5520;45.752;4.874;2022-08-19T11:16:32;8.13;;;6.37;;
10934;SDS011;5520;45.752;4.874;2022-08-19T11:19:02;7.70;;;6.33;;
10934;SDS011;5520;45.752;4.874;2022-08-19T11:21:31;6.20;;;5.60;;
10934;SDS011;5520;45.752;4.874;2022-08-19T11:24:00;7.57;;;6.87;;
10934;SDS011;5520;45.752;4.874;2022-08-19T11:26:29;8.50;;;7.63;;
10934;SDS011;5520;45.752;4.874;2022-08-19T11:28:57;8.90;;;6.80;;
10934;SDS011;5520;45.752;4.874;2022-08-19T11:31:27;6.00;;;5.40;;
10934;SDS011;5520;45.752;4.874;2022-08-19T11:33:57;6.70;;;5.80;;
10934;SDS011;5520;45.752;4.874;2022-08-19T11:36:27;7.70;;;5.40;;
10934;SDS011;5520;45.752;4.874;2022-08-19T11:38:56;7.17;;;6.30;;
10934;SDS011;5520;45.752;4.874;2022-08-19T11:41:24;6.40;;;5.77;;
10934;SDS011;5520;45.752;4.874;2022-08-19T11:43:52;5.40;;;4.90;;
10934;SDS011;5520;45.752;4.874;2022-08-19T11:46:21;6.10;;;5.20;;
10934;SDS011;5520;45.752;4.874;2022-08-19T11:48:50;7.37;;;5.63;;
10934;SDS011;5520;45.752;4.874;2022-08-19T11:51:19;6.27;;;4.93;;
10934;SDS011;5520;45.752;4.874;2022-08-19T11:53:49;6.90;;;5.73;;
10934;SDS011;5520;45.752;4.874;2022-08-19T11:56:18;6.50;;;5.20;;
10934;SDS011;5520;45.752;4.874;2022-08-19T11:58:46;5.90;;;5.30;;
10934;SDS011;5520;45.752;4.874;2022-08-19T12:01:15;5.67;;;4.87;;
10934;SDS011;5520;45.752;4.874;2022-08-19T12:03:44;5.10;;;4.70;;
10934;SDS011;5520;45.752;4.874;2022-08-19T12:06:13;5.30;;;4.80;;
10934;SDS011;5520;45.752;4.874;2022-08-19T12:08:42;6.10;;;4.73;;
10934;SDS011;5520;45.752;4.874;2022-08-19T12:11:12;5.23;;;4.77;;
10934;SDS011;5520;45.752;4.874;2022-08-19T12:13:40;4.73;;;4.33;;
10934;SDS011;5520;45.752;4.874;2022-08-19T12:16:13;5.97;;;4.70;;
10934;SDS011;5520;45.752;4.874;2022-08-19T12:18:41;5.57;;;4.67;;
10934;SDS011;5520;45.752;4.874;2022-08-19T12:21:10;5.10;;;4.60;;
10934;SDS011;5520;45.752;4.874;2022-08-19T12:23:40;5.80;;;5.30;;
10934;SDS011;5520;45.752;4.874;2022-08-19T12:26:08;6.10;;;4.87;;
10934;SDS011;5520;45.752;4.874;2022-08-19T12:28:38;5.13;;;4.63;;
10934;SDS011;5520;45.752;4.874;2022-08-19T12:31:06;5.20;;;4.33;;
10934;SDS011;5520;45.752;4.874;2022-08-19T12:33:34;5.50;;;4.17;;
10934;SDS011;5520;45.752;4.874;2022-08-19T12:36:03;7.67;;;4.90;;
10934;SDS011;5520;45.752;4.874;2022-08-19T12:38:31;6.60;;;4.43;;
10934;SDS011;5520;45.752;4.874;2022-08-19T12:41:00;5.10;;;4.60;;
10934;SDS011;5520;45.752;4.874;2022-08-19T12:43:32;4.80;;;4.37;;
10934;SDS011;5520;45.752;4.874;2022-08-19T12:46:03;5.13;;;4.53;;
10934;SDS011;5520;45.752;4.874;2022-08-19T12:48:36;4.73;;;4.33;;
10934;SDS011;5520;45.752;4.874;2022-08-19T12:51:07;5.90;;;4.70;;
10934;SDS011;5520;45.752;4.874;2022-08-19T12:53:35;4.27;;;3.97;;
10934;SDS011;5520;45.752;4.874;2022-08-19T12:56:05;7.13;;;5.07;;
10934;SDS011;5520;45.752;4.874;2022-08-19T12:58:38;5.23;;;4.03;;
10934;SDS011;5520;45.752;4.874;2022-08-19T13:01:17;5.17;;;4.30;;
10934;SDS011;5520;45.752;4.874;2022-08-19T13:03:48;5.47;;;4.37;;
10934;SDS011;5520;45.752;4.874;2022-08-19T13:06:16;5.07;;;4.50;;
10934;SDS011;5520;45.752;4.874;2022-08-19T13:08:45;4.27;;;3.97;;
10934;SDS011;5520;45.752;4.874;2022-08-19T13:11:14;4.70;;;4.20;;
10934;SDS011;5520;45.752;4.874;2022-08-19T13:13:44;3.93;;;3.63;;
10934;SDS011;5520;45.752;4.874;2022-08-19T13:16:13;6.50;;;3.90;;
10934;SDS011;5520;45.752;4.874;2022-08-19T13:18:44;4.77;;;4.37;;
10934;SDS011;5520;45.752;4.874;2022-08-19T13:21:12;3.70;;;3.40;;
10934;SDS011;5520;45.752;4.874;2022-08-19T13:23:41;5.43;;;4.80;;
10934;SDS011;5520;45.752;4.874;2022-08-19T13:26:09;4.40;;;4.00;;
10934;SDS011;5520;45.752;4.874;2022-08-19T13:28:38;7.93;;;4.10;;
10934;SDS011;5520;45.752;4.874;2022-08-19T13:31:39;4.07;;;3.37;;
10934;SDS011;5520;45.752;4.874;2022-08-19T13:34:31;3.80;;;3.50;;
10934;SDS011;5520;45.752;4.874;2022-08-19T13:37:00;5.57;;;4.13;;
10934;SDS011;5520;45.752;4.874;2022-08-19T13:39:29;7.17;;;5.10;;
10934;SDS011;5520;45.752;4.874;2022-08-19T13:41:59;5.87;;;5.27;;
10934;SDS011;5520;45.752;4.874;2022-08-19T13:44:27;7.67;;;4.83;;
10934;SDS011;5520;45.752;4.874;2022-08-19T13:46:59;5.97;;;5.33;;
10934;SDS011;5520;45.752;4.874;2022-08-19T13:49:33;5.60;;;4.93;;
10934;SDS011;5520;45.752;4.874;2022-08-19T13:52:02;8.93;;;4.47;;
10934;SDS011;5520;45.752;4.874;2022-08-19T13:54:31;5.50;;;5.00;;
10934;SDS011;5520;45.752;4.874;2022-08-19T13:56:59;5.30;;;4.50;;
10934;SDS011;5520;45.752;4.874;2022-08-19T13:59:27;7.17;;;4.20;;
10934;SDS011;5520;45.752;4.874;2022-08-19T14:01:57;10.03;;;4.47;;
10934;SDS011;5520;45.752;4.874;2022-08-19T14:04:25;8.67;;;5.20;;
10934;SDS011;5520;45.752;4.874;2022-08-19T14:06:54;7.27;;;4.77;;
10934;SDS011;5520;45.752;4.874;2022-08-19T14:09:22;5.70;;;4.23;;
10934;SDS011;5520;45.752;4.874;2022-08-19T14:11:50;5.60;;;4.83;;
10934;SDS011;5520;45.752;4.874;2022-08-19T14:14:18;5.33;;;4.37;;
10934;SDS011;5520;45.752;4.874;2022-08-19T14:16:46;6.40;;;5.53;;
10934;SDS011;5520;45.752;4.874;2022-08-19T14:19:14;6.43;;;4.90;;
10934;SDS011;5520;45.752;4.874;2022-08-19T14:21:42;5.40;;;4.63;;
10934;SDS011;5520;45.752;4.874;2022-08-19T14:24:12;4.97;;;4.03;;
10934;SDS011;5520;45.752;4.874;2022-08-19T14:26:40;5.83;;;4.40;;
10934;SDS011;5520;45.752;4.874;2022-08-19T14:29:08;5.53;;;5.03;;
10934;SDS011;5520;45.752;4.874;2022-08-19T14:31:36;6.53;;;5.00;;
10934;SDS011;5520;45.752;4.874;2022-08-19T14:34:06;4.97;;;4.33;;
10934;SDS011;5520;45.752;4.874;2022-08-19T14:36:35;6.17;;;5.23;;
10934;SDS011;5520;45.752;4.874;2022-08-19T14:39:04;5.37;;;4.80;;
10934;SDS011;5520;45.752;4.874;2022-08-19T14:41:34;4.67;;;4.23;;
10934;SDS011;5520;45.752;4.874;2022-08-19T14:44:02;3.93;;;3.50;;
10934;SDS011;5520;45.752;4.874;2022-08-19T14:46:30;4.87;;;3.93;;
10934;SDS011;5520;45.752;4.874;2022-08-19T14:48:58;4.67;;;4.13;;
10934;SDS011;5520;45.752;4.874;2022-08-19T14:51:34;4.33;;;3.93;;
10934;SDS011;5520;45.752;4.874;2022-08-19T14:54:02;5.83;;;4.47;;
10934;SDS011;5520;45.752;4.874;2022-08-19T14:56:30;6.27;;;4.73;;
10934;SDS011;5520;45.752;4.874;2022-08-19T14:59:00;4.90;;;4.50;;
10934;SDS011;5520;45.752;4.874;2022-08-19T15:01:28;6.53;;;4.37;;
10934;SDS011;5520;45.752;4.874;2022-08-19T15:03:56;4.67;;;4.20;;
10934;SDS011;5520;45.752;4.874;2022-08-19T15:06:24;5.07;;;4.20;;
10934;SDS011;5520;45.752;4.874;2022-08-19T15:08:53;3.97;;;3.50;;
10934;SDS011;5520;45.752;4.874;2022-08-19T15:11:25;4.03;;;3.63;;
10934;SDS011;5520;45.752;4.874;2022-08-19T15:13:54;3.77;;;3.23;;
10934;SDS011;5520;45.752;4.874;2022-08-19T15:16:23;3.97;;;3.50;;
10934;SDS011;5520;45.752;4.874;2022-08-19T15:18:52;4.40;;;4.10;;
10934;SDS011;5520;45.752;4.874;2022-08-19T15:21:22;4.40;;;3.70;;